Time;durP1;ratioP1;P1;durP2;ratioP2;P2;SDS_P1;SDS_P2;PMS_P1;PMS_P2;Temp;Humidity;BMP_temperature;BMP_pressure;BME280_temperature;BME280_humidity;BME280_pressure;Samples;Min_cycle;Max_cycle;Signal;HPM_P1;HPM_P2
2022/10/10 00:01:43;;;;;;;15.87;10.90;;;7.30;99.90;;;;;;5074539;28;20193;-61
2022/10/10 00:04:11;;;;;;;12.17;9.67;;;7.30;99.90;;;;;;5074398;28;20275;-61
2022/10/10 00:06:40;;;;;;;13.90;9.17;;;7.30;99.90;;;;;;5074409;28;20211;-61
2022/10/10 00:09:10;;;;;;;14.90;9.63;;;7.20;99.90;;;;;;5073885;28;20192;-61
2022/10/10 00:11:38;;;;;;;15.40;9.27;;;7.20;99.90;;;;;;5074262;28;20271;-61
2022/10/10 00:14:07;;;;;;;13.93;9.60;;;7.20;99.90;;;;;;5074710;28;20188;-61
2022/10/10 00:16:35;;;;;;;16.50;10.17;;;7.20;99.90;;;;;;5074198;28;20309;-61
2022/10/10 00:19:03;;;;;;;18.63;9.70;;;7.10;99.90;;;;;;5074071;28;20582;-60
2022/10/10 00:21:32;;;;;;;19.20;10.40;;;7.10;99.90;;;;;;5072923;28;20241;-61
2022/10/10 00:24:00;;;;;;;18.60;11.03;;;7.10;99.90;;;;;;5073969;28;20642;-61
2022/10/10 00:26:30;;;;;;;16.73;10.50;;;7.10;99.90;;;;;;5074271;28;20204;-61
2022/10/10 00:28:58;;;;;;;20.23;11.37;;;7.10;99.90;;;;;;5073880;28;20192;-62
2022/10/10 00:31:27;;;;;;;17.20;10.77;;;7.00;99.90;;;;;;5072668;28;20198;-61
2022/10/10 00:33:55;;;;;;;17.70;11.40;;;7.00;99.90;;;;;;5073792;28;20192;-61
2022/10/10 00:36:23;;;;;;;16.77;11.03;;;7.00;99.90;;;;;;5074026;28;20676;-60
2022/10/10 00:38:52;;;;;;;17.73;12.00;;;7.00;99.90;;;;;;5072507;28;20261;-61
2022/10/10 00:41:22;;;;;;;21.63;11.13;;;7.00;99.90;;;;;;5073667;28;20549;-61
2022/10/10 00:44:10;;;;;;;17.17;10.27;;;7.00;99.90;;;;;;5074121;28;20192;-61
2022/10/10 00:46:39;;;;;;;16.77;10.77;;;7.00;99.90;;;;;;5074348;28;20709;-60
2022/10/10 00:49:12;;;;;;;14.47;10.17;;;7.00;99.90;;;;;;5073629;28;20192;-61
2022/10/10 00:51:42;;;;;;;18.90;10.10;;;7.00;99.90;;;;;;5071768;28;20586;-60
2022/10/10 00:54:12;;;;;;;15.33;9.83;;;7.00;99.90;;;;;;5072729;28;20199;-61
2022/10/10 00:56:46;;;;;;;11.83;8.90;;;7.00;99.90;;;;;;5073503;28;20195;-60
2022/10/10 00:59:18;;;;;;;13.53;7.53;;;7.00;99.90;;;;;;5073467;28;20194;-60
2022/10/10 01:06:31;;;;;;;9.63;6.97;;;7.20;99.90;;;;;;5073645;28;20267;-61
2022/10/10 01:09:00;;;;;;;11.20;6.40;;;7.30;99.90;;;;;;5072111;28;20226;-60
2022/10/10 01:11:44;;;;;;;13.37;6.70;;;7.40;99.90;;;;;;5073738;28;20630;-60
2022/10/10 01:14:26;;;;;;;14.13;6.73;;;7.40;99.90;;;;;;5072942;28;20218;-61
2022/10/10 01:17:02;;;;;;;12.57;6.17;;;7.40;99.90;;;;;;5073251;28;20231;-60
2022/10/10 01:20:00;;;;;;;11.10;6.80;;;7.50;99.90;;;;;;5073386;28;20203;-60
2022/10/10 01:22:39;;;;;;;10.50;7.00;;;7.60;99.90;;;;;;5073789;28;20192;-61
2022/10/10 01:29:51;;;;;;;8.40;6.77;;;7.60;99.90;;;;;;5073434;28;20291;-60
2022/10/10 01:32:30;;;;;;;9.17;7.07;;;7.60;99.90;;;;;;5055173;28;20206;-60
2022/10/10 01:35:13;;;;;;;9.90;6.90;;;7.60;99.90;;;;;;5073627;28;20222;-61
2022/10/10 01:37:52;;;;;;;8.90;6.80;;;7.60;99.90;;;;;;5073033;28;20192;-61
2022/10/10 01:40:28;;;;;;;9.57;6.83;;;7.60;99.90;;;;;;5073522;28;20188;-61
2022/10/10 01:43:00;;;;;;;12.03;7.33;;;7.60;99.90;;;;;;5073344;28;20199;-61
2022/10/10 01:45:30;;;;;;;9.57;7.10;;;7.60;99.90;;;;;;5073472;28;20189;-60
2022/10/10 01:48:02;;;;;;;8.83;6.87;;;7.70;99.90;;;;;;5072967;28;20212;-60
2022/10/10 01:50:42;;;;;;;12.43;7.17;;;7.70;99.90;;;;;;5072940;28;20195;-60
2022/10/10 01:53:17;;;;;;;9.40;7.23;;;7.70;99.90;;;;;;5073055;28;20192;-61
2022/10/10 01:55:56;;;;;;;9.83;7.30;;;7.70;99.90;;;;;;5072891;28;20183;-60
2022/10/10 01:58:55;;;;;;;9.63;7.10;;;7.80;99.90;;;;;;5072994;28;20188;-61
2022/10/10 02:01:35;;;;;;;13.30;7.63;;;7.80;99.90;;;;;;5073877;28;20650;-61
2022/10/10 02:04:09;;;;;;;10.90;6.93;;;7.90;99.90;;;;;;5073459;28;20196;-61
2022/10/10 02:06:41;;;;;;;9.90;7.27;;;7.90;99.90;;;;;;5075350;28;20294;-61
2022/10/10 02:09:14;;;;;;;8.17;7.20;;;7.90;99.90;;;;;;5076931;28;20177;-60
2022/10/10 02:11:43;;;;;;;8.97;6.67;;;7.90;99.90;;;;;;5076874;28;20192;-61
2022/10/10 02:14:18;;;;;;;10.57;7.30;;;7.90;99.90;;;;;;5076578;28;20199;-61
2022/10/10 02:16:52;;;;;;;12.50;7.67;;;7.90;99.90;;;;;;5075336;28;20237;-61
2022/10/10 02:19:22;;;;;;;18.43;8.03;;;7.90;99.90;;;;;;5076727;28;20203;-60
2022/10/10 02:21:53;;;;;;;15.00;7.57;;;7.90;99.90;;;;;;5075090;28;20192;-60
2022/10/10 02:24:24;;;;;;;11.27;7.00;;;7.90;99.90;;;;;;5076805;28;20268;-60
2022/10/10 02:26:58;;;;;;;11.83;7.10;;;7.80;99.90;;;;;;5075499;28;20220;-60
2022/10/10 02:29:31;;;;;;;9.33;7.20;;;7.80;99.90;;;;;;5076235;28;20196;-60
2022/10/10 02:32:06;;;;;;;10.43;7.20;;;7.80;99.90;;;;;;5075430;28;20191;-61
2022/10/10 02:34:36;;;;;;;11.63;7.10;;;7.80;99.90;;;;;;5076431;28;20192;-61
2022/10/10 02:37:08;;;;;;;11.63;7.30;;;7.80;99.90;;;;;;5075069;28;20190;-61
2022/10/10 02:39:41;;;;;;;11.57;7.57;;;7.80;99.90;;;;;;5076597;28;20198;-61
2022/10/10 02:42:12;;;;;;;11.13;6.97;;;7.80;99.90;;;;;;5076015;28;20298;-60
2022/10/10 02:44:41;;;;;;;10.73;7.20;;;7.80;99.90;;;;;;5076357;28;20180;-60
2022/10/10 02:47:11;;;;;;;9.83;6.97;;;7.80;99.90;;;;;;5076276;28;20200;-61
2022/10/10 02:49:40;;;;;;;18.90;7.43;;;7.80;99.90;;;;;;5076018;28;20184;-61
2022/10/10 02:52:09;;;;;;;11.37;7.40;;;7.80;99.90;;;;;;5075988;28;20250;-61
2022/10/10 02:54:37;;;;;;;13.80;7.40;;;7.90;99.90;;;;;;5075995;28;20195;-61
2022/10/10 02:57:06;;;;;;;12.03;7.00;;;7.90;99.90;;;;;;5075744;28;20192;-60
2022/10/10 02:59:34;;;;;;;11.53;7.37;;;7.80;99.90;;;;;;5076158;28;20210;-61
2022/10/10 03:02:03;;;;;;;10.33;6.90;;;7.90;99.90;;;;;;5076447;28;20192;-61
2022/10/10 03:04:33;;;;;;;13.17;6.90;;;7.90;99.90;;;;;;5075859;28;20200;-61
2022/10/10 03:07:01;;;;;;;10.17;7.47;;;8.00;99.90;;;;;;5074665;28;20212;-61
2022/10/10 03:09:30;;;;;;;11.50;6.97;;;8.00;99.90;;;;;;5075628;28;20542;-61
2022/10/10 03:11:58;;;;;;;10.87;7.33;;;8.00;99.90;;;;;;5074945;28;20192;-60
2022/10/10 03:14:26;;;;;;;10.47;7.17;;;8.00;99.90;;;;;;5075348;28;20184;-60
2022/10/10 03:16:55;;;;;;;8.40;7.00;;;8.00;99.90;;;;;;5073407;28;20228;-61
2022/10/10 03:19:23;;;;;;;18.23;7.03;;;7.90;99.90;;;;;;5074111;28;20685;-62
2022/10/10 03:21:53;;;;;;;12.87;6.87;;;7.90;99.90;;;;;;5075329;28;20222;-61
2022/10/10 03:24:21;;;;;;;10.50;6.87;;;7.90;99.90;;;;;;5075472;28;20192;-60
2022/10/10 03:26:49;;;;;;;18.47;7.43;;;7.90;99.90;;;;;;5075638;28;20237;-60
2022/10/10 03:29:18;;;;;;;20.77;7.53;;;7.90;99.90;;;;;;5074107;28;20192;-61
2022/10/10 03:31:46;;;;;;;15.30;7.20;;;7.80;99.90;;;;;;5075042;28;20202;-60
2022/10/10 03:34:14;;;;;;;10.13;6.73;;;7.90;99.90;;;;;;5075445;28;20539;-60
2022/10/10 03:36:42;;;;;;;11.43;6.77;;;7.90;99.90;;;;;;5073954;28;20192;-60
2022/10/10 03:39:12;;;;;;;9.63;6.90;;;7.90;99.90;;;;;;5075141;28;20195;-60
2022/10/10 03:41:43;;;;;;;11.87;7.40;;;8.00;99.90;;;;;;5074866;28;20242;-60
2022/10/10 03:44:12;;;;;;;9.73;7.00;;;8.10;99.90;;;;;;5075067;28;20673;-60
2022/10/10 03:46:40;;;;;;;14.80;7.70;;;8.10;99.90;;;;;;5075448;28;20192;-60
2022/10/10 03:49:08;;;;;;;13.07;7.23;;;8.10;99.90;;;;;;5075135;28;20698;-61
2022/10/10 03:51:37;;;;;;;17.30;6.77;;;8.10;99.90;;;;;;5074587;28;20223;-60
2022/10/10 03:54:05;;;;;;;11.60;7.07;;;8.10;99.90;;;;;;5074641;28;20188;-60
2022/10/10 03:56:35;;;;;;;11.03;7.17;;;8.10;99.90;;;;;;5074606;28;20270;-61
2022/10/10 03:59:05;;;;;;;16.33;7.40;;;8.10;99.90;;;;;;5073286;28;20188;-61
2022/10/10 04:01:33;;;;;;;14.13;7.00;;;8.00;99.90;;;;;;5072707;28;20192;-61
2022/10/10 04:04:39;;;;;;;9.97;6.80;;;8.00;99.90;;;;;;5074140;28;20183;-60
2022/10/10 04:07:08;;;;;;;17.03;6.93;;;8.00;99.90;;;;;;5072987;28;20190;-60
2022/10/10 04:09:36;;;;;;;8.33;6.97;;;7.90;99.90;;;;;;5075057;28;20203;-61
2022/10/10 04:12:06;;;;;;;11.77;7.30;;;7.90;99.90;;;;;;5073760;28;20192;-61
2022/10/10 04:14:37;;;;;;;9.00;6.70;;;7.90;99.90;;;;;;5074689;28;20196;-61
2022/10/10 04:17:05;;;;;;;13.13;7.60;;;7.90;99.90;;;;;;5074161;28;20683;-61
2022/10/10 04:19:33;;;;;;;14.70;7.83;;;7.90;99.90;;;;;;5074197;28;20188;-63
2022/10/10 04:22:01;;;;;;;12.37;7.03;;;7.90;99.90;;;;;;5074082;28;20204;-60
2022/10/10 04:24:30;;;;;;;12.70;7.20;;;8.00;99.90;;;;;;5072387;28;20188;-61
2022/10/10 04:26:59;;;;;;;12.03;7.60;;;8.00;99.90;;;;;;5073543;28;20188;-62
2022/10/10 04:29:28;;;;;;;10.20;6.60;;;8.00;99.90;;;;;;5073801;28;20219;-60
2022/10/10 04:31:57;;;;;;;8.07;6.80;;;8.00;99.90;;;;;;5072701;28;20195;-60
2022/10/10 04:34:27;;;;;;;12.43;7.67;;;8.00;99.90;;;;;;5074314;28;20200;-61
2022/10/10 04:36:55;;;;;;;11.37;7.17;;;8.00;99.90;;;;;;5072783;28;20203;-60
2022/10/10 04:39:24;;;;;;;15.43;7.47;;;8.00;99.90;;;;;;5074177;28;20195;-60
2022/10/10 04:41:52;;;;;;;11.70;7.40;;;8.00;99.90;;;;;;5073540;28;20192;-61
2022/10/10 04:44:20;;;;;;;13.33;7.77;;;8.00;99.90;;;;;;5074049;28;20188;-61
2022/10/10 04:46:50;;;;;;;12.17;7.43;;;8.00;99.90;;;;;;5073621;28;20215;-61
2022/10/10 04:49:18;;;;;;;11.43;7.67;;;8.00;99.90;;;;;;5073378;28;20681;-62
2022/10/10 04:51:47;;;;;;;8.63;6.77;;;7.90;99.90;;;;;;5072265;28;20573;-60
2022/10/10 04:54:15;;;;;;;14.00;7.63;;;7.90;99.90;;;;;;5073418;28;20191;-61
2022/10/10 04:56:44;;;;;;;11.23;7.57;;;7.80;99.90;;;;;;5073047;28;20206;-60
2022/10/10 04:59:14;;;;;;;13.53;7.40;;;7.80;99.90;;;;;;5073549;28;20547;-61
2022/10/10 05:01:42;;;;;;;11.53;7.20;;;7.80;99.90;;;;;;5074202;28;20635;-61
2022/10/10 05:04:13;;;;;;;11.70;7.27;;;7.90;99.90;;;;;;5073044;28;20602;-61
2022/10/10 05:06:41;;;;;;;12.03;7.37;;;8.00;99.90;;;;;;5073616;28;20191;-61
2022/10/10 05:09:10;;;;;;;13.87;7.63;;;8.00;99.90;;;;;;5073200;28;20208;-60
2022/10/10 05:11:38;;;;;;;12.93;8.00;;;8.00;99.90;;;;;;5073322;28;20597;-60
2022/10/10 05:14:07;;;;;;;10.87;7.30;;;8.00;99.90;;;;;;5074219;28;20184;-60
2022/10/10 05:16:35;;;;;;;10.43;7.13;;;7.90;99.90;;;;;;5073078;28;20231;-60
2022/10/10 05:19:03;;;;;;;10.00;7.20;;;7.90;99.90;;;;;;5073127;28;20239;-60
2022/10/10 05:21:33;;;;;;;17.73;7.83;;;7.90;99.90;;;;;;5073231;28;20550;-60
2022/10/10 05:24:02;;;;;;;12.47;7.50;;;7.90;99.90;;;;;;5073222;28;20654;-60
2022/10/10 05:26:30;;;;;;;11.37;7.43;;;7.80;99.90;;;;;;5073684;28;20241;-60
2022/10/10 05:28:58;;;;;;;13.20;7.67;;;7.80;99.90;;;;;;5073515;28;20613;-61
2022/10/10 05:31:27;;;;;;;11.40;7.50;;;7.80;99.90;;;;;;5073191;28;20218;-60
2022/10/10 05:33:55;;;;;;;14.47;8.00;;;7.80;99.90;;;;;;5071948;28;20199;-60
2022/10/10 05:36:23;;;;;;;13.83;7.67;;;7.70;99.90;;;;;;5071826;28;20191;-61
2022/10/10 05:38:53;;;;;;;14.63;7.97;;;7.70;99.90;;;;;;5073854;28;20191;-61
2022/10/10 05:41:22;;;;;;;17.40;8.73;;;7.70;99.90;;;;;;5076133;28;20279;-61
2022/10/10 05:43:50;;;;;;;13.57;8.17;;;7.70;99.90;;;;;;5077211;28;20626;-60
2022/10/10 05:46:21;;;;;;;19.27;9.00;;;7.70;99.90;;;;;;5077346;28;20188;-60
2022/10/10 05:48:50;;;;;;;15.90;8.57;;;7.70;99.90;;;;;;5058705;28;20208;-60
2022/10/10 05:51:19;;;;;;;14.97;8.67;;;7.60;99.90;;;;;;5057253;28;20227;-60
2022/10/10 05:53:47;;;;;;;11.30;8.33;;;7.70;99.90;;;;;;5057232;28;20551;-61
2022/10/10 05:56:17;;;;;;;14.80;8.30;;;7.70;99.90;;;;;;5056832;28;20196;-61
2022/10/10 05:58:45;;;;;;;17.73;8.20;;;7.70;99.90;;;;;;5039004;28;20188;-60
2022/10/10 06:01:13;;;;;;;13.70;8.43;;;7.70;99.90;;;;;;5057148;28;20195;-60
2022/10/10 06:03:42;;;;;;;12.53;8.33;;;7.70;99.90;;;;;;5056791;28;20561;-61
2022/10/10 06:06:10;;;;;;;16.30;8.47;;;7.70;99.90;;;;;;5057668;28;20246;-60
2022/10/10 06:08:38;;;;;;;11.97;8.27;;;7.70;99.90;;;;;;5056815;28;20663;-60
2022/10/10 06:11:07;;;;;;;17.27;9.13;;;7.70;99.90;;;;;;5056962;28;20212;-61
2022/10/10 06:13:38;;;;;;;14.60;8.27;;;7.80;99.90;;;;;;5057167;28;20197;-60
2022/10/10 06:16:06;;;;;;;16.03;8.50;;;7.80;99.90;;;;;;5063941;28;20224;-60
2022/10/10 06:18:34;;;;;;;16.67;8.23;;;7.70;99.90;;;;;;5075806;28;20200;-61
2022/10/10 06:21:04;;;;;;;13.00;9.00;;;7.80;99.90;;;;;;5075862;28;20203;-60
2022/10/10 06:23:33;;;;;;;15.80;8.67;;;7.80;99.90;;;;;;5076531;28;20200;-60
2022/10/10 06:26:01;;;;;;;17.07;8.50;;;7.90;99.90;;;;;;5075738;28;20195;-60
2022/10/10 06:28:30;;;;;;;12.83;8.87;;;7.80;99.90;;;;;;5076861;28;20200;-60
2022/10/10 06:31:02;;;;;;;15.83;8.53;;;7.80;99.90;;;;;;5076856;28;20203;-60
2022/10/10 06:33:30;;;;;;;14.13;9.07;;;7.80;99.90;;;;;;5076787;28;20203;-60
2022/10/10 06:35:59;;;;;;;15.97;8.40;;;7.80;99.90;;;;;;5076328;28;20191;-60
2022/10/10 06:38:27;;;;;;;13.77;8.23;;;8.00;99.90;;;;;;5076840;28;20639;-60
2022/10/10 06:40:56;;;;;;;15.70;9.37;;;8.00;99.90;;;;;;5074823;28;20214;-61
2022/10/10 06:43:27;;;;;;;17.10;9.57;;;8.00;99.90;;;;;;5076679;28;20191;-60
2022/10/10 06:45:56;;;;;;;14.53;9.27;;;8.00;99.90;;;;;;5076026;28;20554;-60
2022/10/10 06:48:26;;;;;;;18.63;8.93;;;8.10;99.90;;;;;;5075919;28;20642;-60
2022/10/10 06:50:59;;;;;;;17.23;9.40;;;8.20;99.90;;;;;;5074585;28;20216;-60
2022/10/10 06:53:28;;;;;;;17.27;9.93;;;8.30;99.90;;;;;;5076359;28;20203;-60
2022/10/10 06:55:57;;;;;;;19.43;9.97;;;8.40;99.90;;;;;;5076547;28;20226;-60
2022/10/10 06:58:26;;;;;;;21.97;10.27;;;8.70;99.90;;;;;;5075704;28;20191;-60
2022/10/10 07:00:59;;;;;;;21.67;10.10;;;8.90;99.90;;;;;;5076282;28;20184;-61
2022/10/10 07:03:30;;;;;;;13.70;9.23;;;9.00;99.90;;;;;;5076408;28;20234;-60
2022/10/10 07:06:01;;;;;;;16.17;9.33;;;9.20;99.90;;;;;;5075788;28;20195;-60
2022/10/10 07:08:30;;;;;;;12.17;8.57;;;9.30;99.90;;;;;;5074260;28;20200;-60
2022/10/10 07:10:58;;;;;;;15.07;9.33;;;9.50;99.90;;;;;;5074758;28;20681;-59
2022/10/10 07:13:27;;;;;;;20.77;9.83;;;9.70;99.90;;;;;;5074536;28;20647;-60
2022/10/10 07:15:55;;;;;;;14.00;9.13;;;9.80;99.90;;;;;;5075196;28;20239;-60
2022/10/10 07:18:23;;;;;;;12.40;8.30;;;10.10;99.90;;;;;;5074410;28;20581;-60
2022/10/10 07:20:57;;;;;;;22.40;9.50;;;10.30;99.90;;;;;;5074500;28;20540;-59
2022/10/10 07:23:26;;;;;;;15.10;8.17;;;10.40;99.90;;;;;;5075939;28;20198;-60
2022/10/10 07:26:00;;;;;;;14.80;9.33;;;10.60;99.90;;;;;;5074355;28;20537;-61
2022/10/10 07:28:28;;;;;;;14.03;8.00;;;10.70;99.90;;;;;;5075545;28;20195;-60
2022/10/10 07:31:00;;;;;;;14.10;8.60;;;10.90;99.90;;;;;;5075011;28;20261;-60
2022/10/10 07:33:32;;;;;;;15.70;7.73;;;11.00;99.90;;;;;;5057292;28;20188;-60
2022/10/10 07:36:01;;;;;;;17.93;9.17;;;11.10;99.90;;;;;;5075046;28;20200;-60
2022/10/10 07:38:30;;;;;;;21.53;12.47;;;11.30;99.90;;;;;;5075434;28;20685;-60
2022/10/10 07:40:58;;;;;;;25.90;16.70;;;11.40;99.90;;;;;;5074861;28;20195;-61
2022/10/10 07:43:27;;;;;;;17.60;11.33;;;11.60;99.90;;;;;;5074889;28;20191;-61
2022/10/10 07:45:55;;;;;;;34.53;19.30;;;11.70;99.90;;;;;;5074875;28;20192;-61
2022/10/10 07:48:24;;;;;;;27.03;16.40;;;11.80;99.90;;;;;;5075177;28;20196;-61
2022/10/10 07:50:52;;;;;;;38.43;22.13;;;11.80;99.90;;;;;;5075190;28;20224;-61
2022/10/10 07:53:22;;;;;;;34.20;18.27;;;11.80;99.90;;;;;;5074770;28;20196;-61
2022/10/10 07:55:51;;;;;;;14.40;8.80;;;11.80;99.90;;;;;;5074890;28;20207;-61
2022/10/10 07:58:19;;;;;;;30.17;17.50;;;11.90;99.90;;;;;;5074502;28;20192;-62
2022/10/10 08:00:47;;;;;;;17.10;9.60;;;11.90;99.90;;;;;;5074761;28;20192;-61
2022/10/10 08:03:15;;;;;;;20.40;10.07;;;12.10;99.90;;;;;;5074931;28;20658;-61
2022/10/10 08:05:45;;;;;;;11.43;7.67;;;12.30;99.90;;;;;;5074379;28;20199;-62
2022/10/10 08:08:14;;;;;;;24.87;11.13;;;12.60;99.90;;;;;;5074345;28;20249;-61
2022/10/10 08:10:44;;;;;;;25.63;14.10;;;12.90;99.90;;;;;;5074319;28;20207;-61
2022/10/10 08:13:12;;;;;;;41.40;19.80;;;13.30;99.90;;;;;;5072999;28;20196;-62
2022/10/10 08:15:41;;;;;;;35.77;17.60;;;13.50;99.90;;;;;;5073959;28;20239;-61
2022/10/10 08:18:09;;;;;;;26.43;11.33;;;13.60;99.90;;;;;;5074168;28;20196;-60
2022/10/10 08:20:38;;;;;;;166.20;62.33;;;13.50;99.90;;;;;;5074183;28;20274;-61
2022/10/10 08:23:09;;;;;;;54.10;23.03;;;13.40;99.90;;;;;;5074357;28;20193;-62
2022/10/10 08:25:37;;;;;;;38.70;19.57;;;13.30;99.90;;;;;;5074280;28;20195;-62
2022/10/10 08:28:07;;;;;;;16.47;8.23;;;13.30;99.90;;;;;;5074561;28;20198;-61
2022/10/10 08:35:13;;;;;;;76.83;38.63;;;13.30;99.90;;;;;;5074524;28;20285;-61
2022/10/10 08:37:42;;;;;;;29.33;15.67;;;13.30;99.90;;;;;;5074051;28;20214;-62
2022/10/10 08:40:13;;;;;;;32.03;16.37;;;13.20;99.90;;;;;;5074179;28;20581;-61
2022/10/10 08:42:48;;;;;;;15.67;9.17;;;13.20;99.90;;;;;;5073772;28;20271;-61
2022/10/10 08:45:25;;;;;;;33.07;18.20;;;13.20;99.90;;;;;;5073666;28;20196;-62
2022/10/10 08:47:59;;;;;;;16.27;8.30;;;13.20;99.90;;;;;;5073663;28;20199;-61
2022/10/10 08:50:33;;;;;;;26.60;14.63;;;13.20;99.90;;;;;;5106614;28;20600;-61
2022/10/10 08:53:08;;;;;;;17.57;10.93;;;13.20;99.90;;;;;;5073803;28;20195;-61
2022/10/10 08:55:42;;;;;;;20.63;11.40;;;13.10;99.90;;;;;;5073556;28;20188;-62
2022/10/10 08:58:19;;;;;;;43.93;25.37;;;13.20;99.90;;;;;;5073557;28;20199;-61
2022/10/10 09:00:54;;;;;;;33.23;18.20;;;13.30;99.90;;;;;;5074057;28;20638;-61
2022/10/10 09:03:30;;;;;;;23.20;14.17;;;13.50;99.90;;;;;;5073747;28;20215;-60
2022/10/10 09:06:16;;;;;;;33.93;15.50;;;13.80;99.90;;;;;;5074068;28;20212;-61
2022/10/10 09:08:54;;;;;;;44.90;26.90;;;14.00;99.90;;;;;;5073779;28;20488;-61
2022/10/10 09:11:38;;;;;;;25.73;16.07;;;14.20;99.90;;;;;;5073983;28;20203;-61
2022/10/10 09:14:18;;;;;;;40.97;24.83;;;14.50;99.90;;;;;;5072740;28;20176;-61
2022/10/10 09:16:55;;;;;;;29.50;15.83;;;14.70;99.90;;;;;;5073314;28;20233;-61
2022/10/10 09:19:36;;;;;;;38.27;22.07;;;14.80;99.90;;;;;;5073769;28;20646;-60
2022/10/10 09:22:12;;;;;;;31.27;16.77;;;15.10;99.90;;;;;;5074073;28;20176;-60
2022/10/10 09:24:46;;;;;;;16.40;7.70;;;15.20;99.90;;;;;;5073194;28;20555;-61
2022/10/10 09:27:18;;;;;;;21.63;8.80;;;15.30;99.90;;;;;;5073461;28;20200;-60
2022/10/10 09:29:51;;;;;;;11.63;8.50;;;15.40;99.90;;;;;;5073449;28;20181;-61
2022/10/10 09:32:25;;;;;;;13.73;6.53;;;15.60;99.90;;;;;;5071854;28;20291;-61
2022/10/10 09:34:58;;;;;;;11.47;7.03;;;15.90;99.90;;;;;;5073714;28;20556;-61
2022/10/10 09:37:34;;;;;;;61.77;32.77;;;16.10;99.90;;;;;;5073092;28;20192;-61
2022/10/10 09:44:33;;;;;;;18.03;10.60;;;16.50;99.90;;;;;;5073459;28;20205;-62
2022/10/10 09:47:02;;;;;;;9.50;5.20;;;16.70;99.90;;;;;;5073028;28;20268;-60
2022/10/10 09:49:32;;;;;;;8.80;5.10;;;16.70;99.90;;;;;;5072933;28;20198;-62
2022/10/10 09:52:25;;;;;;;8.43;5.20;;;16.60;99.90;;;;;;5072225;28;20222;-61
2022/10/10 09:54:59;;;;;;;18.10;8.20;;;16.70;99.90;;;;;;5073478;28;20195;-61
2022/10/10 09:57:32;;;;;;;11.93;5.27;;;16.90;99.90;;;;;;5072891;28;20193;-61
2022/10/10 10:00:25;;;;;;;14.97;8.07;;;17.10;99.90;;;;;;5073290;28;20194;-62
2022/10/10 10:03:31;;;;;;;27.30;16.27;;;17.30;99.90;;;;;;5073488;28;20206;-61
2022/10/10 10:06:01;;;;;;;10.87;7.57;;;17.40;99.90;;;;;;5072372;28;20191;-61
2022/10/10 10:08:34;;;;;;;12.10;7.00;;;17.20;99.90;;;;;;5073031;28;20261;-62
2022/10/10 10:11:04;;;;;;;24.03;15.60;;;17.30;99.90;;;;;;5073245;28;20220;-61
2022/10/10 10:13:34;;;;;;;33.60;19.77;;;17.50;99.90;;;;;;5073000;28;20199;-62
2022/10/10 10:16:08;;;;;;;24.87;14.67;;;17.70;99.90;;;;;;5072672;28;20589;-62
2022/10/10 10:18:42;;;;;;;10.30;5.83;;;17.90;99.90;;;;;;5072894;28;20709;-61
2022/10/10 10:21:22;;;;;;;11.67;6.70;;;18.10;99.90;;;;;;5073242;28;20172;-62
2022/10/10 10:23:55;;;;;;;18.90;8.33;;;18.30;99.90;;;;;;5071928;28;20539;-62
2022/10/10 10:26:26;;;;;;;12.37;6.67;;;18.30;99.90;;;;;;5109019;28;20202;-61
2022/10/10 10:28:56;;;;;;;14.03;4.90;;;18.50;99.90;;;;;;5076501;28;20190;-62
2022/10/10 10:31:41;;;;;;;40.47;22.20;;;18.40;99.90;;;;;;5076740;28;20676;-62
2022/10/10 10:34:30;;;;;;;56.87;26.53;;;18.20;99.90;;;;;;5076194;28;20200;-62
2022/10/10 10:37:06;;;;;;;23.73;11.33;;;18.20;99.90;;;;;;5076681;28;20188;-62
2022/10/10 10:39:53;;;;;;;17.40;9.73;;;18.40;99.90;;;;;;5076641;28;20195;-62
2022/10/10 10:42:35;;;;;;;31.30;13.37;;;18.70;99.90;;;;;;5075002;28;20180;-62
2022/10/10 10:45:15;;;;;;;26.70;13.30;;;18.90;99.90;;;;;;5076780;28;20192;-62
2022/10/10 10:47:53;;;;;;;8.23;4.77;;;19.20;99.90;;;;;;5075553;28;20295;-62
2022/10/10 10:50:39;;;;;;;11.63;4.60;;;19.10;99.90;;;;;;5076213;28;20192;-62
2022/10/10 10:53:17;;;;;;;9.53;4.40;;;19.10;99.90;;;;;;5075989;28;20200;-62
2022/10/10 10:55:50;;;;;;;21.27;11.10;;;19.20;99.90;;;;;;5075411;28;20202;-62
2022/10/10 11:11:37;;;;;;;23.60;11.10;;;19.50;99.90;;;;;;5092659;28;20540;-64
2022/10/10 11:14:58;;;;;;;11.53;4.27;;;20.10;99.90;;;;;;5067432;28;20204;-65
2022/10/10 11:18:12;;;;;;;11.47;6.60;;;20.30;99.90;;;;;;5051372;28;20223;-65
2022/10/10 11:21:21;;;;;;;7.00;5.30;;;20.20;99.90;;;;;;5046438;28;20259;-65
2022/10/10 11:24:43;;;;;;;10.07;4.10;;;20.00;99.90;;;;;;5061162;28;20583;-64
2022/10/10 11:27:55;;;;;;;7.90;3.63;;;19.70;99.90;;;;;;5042749;28;20219;-64
2022/10/10 11:31:05;;;;;;;9.83;3.70;;;19.30;99.90;;;;;;5059457;28;20191;-64
2022/10/10 11:34:20;;;;;;;6.70;3.23;;;19.00;99.90;;;;;;5060562;28;20235;-64
2022/10/10 11:37:29;;;;;;;12.20;4.40;;;18.80;99.90;;;;;;5060798;28;20203;-65
2022/10/10 11:40:44;;;;;;;6.97;3.80;;;18.60;99.90;;;;;;5061737;28;20220;-64
2022/10/10 11:43:55;;;;;;;10.00;4.30;;;18.60;99.90;;;;;;5066776;28;20277;-64
2022/10/10 11:47:11;;;;;;;9.00;4.13;;;18.60;99.90;;;;;;5053812;28;20219;-64
2022/10/10 11:50:26;;;;;;;8.47;4.37;;;18.50;99.90;;;;;;5051824;28;20192;-65
2022/10/10 11:53:37;;;;;;;8.37;4.17;;;18.50;99.90;;;;;;5060032;28;20235;-63
2022/10/10 11:56:46;;;;;;;10.93;4.47;;;18.50;99.90;;;;;;5058319;28;20212;-60
2022/10/10 11:59:58;;;;;;;7.47;4.13;;;18.60;99.90;;;;;;5063771;28;20204;-60
2022/10/10 12:03:03;;;;;;;7.10;4.30;;;18.70;99.90;;;;;;5052055;28;20591;-61
2022/10/10 12:06:20;;;;;;;17.33;4.73;;;18.80;99.90;;;;;;5048682;28;20208;-62
2022/10/10 12:09:30;;;;;;;10.87;4.63;;;19.00;99.90;;;;;;5049955;28;20818;-61
2022/10/10 12:12:40;;;;;;;9.50;4.83;;;19.10;99.90;;;;;;5029619;28;20204;-62
2022/10/10 12:15:52;;;;;;;14.07;4.93;;;19.30;99.90;;;;;;5035731;28;20707;-60
2022/10/10 12:19:01;;;;;;;7.33;4.87;;;19.30;99.90;;;;;;5036351;28;20228;-61
2022/10/10 12:22:10;;;;;;;7.80;4.90;;;19.40;99.90;;;;;;5048875;28;20564;-61
2022/10/10 12:25:35;;;;;;;10.87;5.13;;;19.50;99.90;;;;;;5023309;28;20205;-60
2022/10/10 12:29:00;;;;;;;11.40;4.53;;;19.50;99.90;;;;;;5026659;28;20205;-60
2022/10/10 12:32:39;;;;;;;10.17;4.93;;;19.50;99.90;;;;;;5032991;28;20692;-60
2022/10/10 12:35:45;;;;;;;12.70;5.40;;;19.50;99.90;;;;;;5029794;28;20284;-60
2022/10/10 12:39:24;;;;;;;10.60;5.33;;;19.60;99.90;;;;;;5028645;28;20735;-60
2022/10/10 12:42:32;;;;;;;12.77;5.83;;;19.60;99.90;;;;;;5028700;28;20704;-60
2022/10/10 12:46:08;;;;;;;12.00;5.40;;;19.80;99.90;;;;;;5031630;28;20304;-60
2022/10/10 12:49:19;;;;;;;14.07;6.00;;;19.80;99.90;;;;;;5033445;28;20311;-60
2022/10/10 12:52:31;;;;;;;13.70;5.70;;;19.70;99.90;;;;;;5023800;28;20205;-60
2022/10/10 12:55:42;;;;;;;13.13;6.43;;;19.70;99.90;;;;;;5033492;28;20602;-60
2022/10/10 12:58:49;;;;;;;11.67;6.30;;;19.50;99.90;;;;;;5025942;28;20240;-60
2022/10/10 13:01:58;;;;;;;14.00;6.47;;;19.40;99.90;;;;;;5025025;28;20201;-60
2022/10/10 13:05:10;;;;;;;11.07;6.67;;;19.60;99.90;;;;;;5031452;28;20284;-60
2022/10/10 13:08:19;;;;;;;13.60;6.63;;;20.00;99.90;;;;;;5031312;28;20201;-60
2022/10/10 13:11:25;;;;;;;9.43;6.30;;;20.00;99.90;;;;;;5034609;28;20252;-60
2022/10/10 13:14:39;;;;;;;11.77;6.80;;;19.70;99.90;;;;;;5032667;28;20251;-60
2022/10/10 13:17:45;;;;;;;11.23;7.03;;;19.40;99.90;;;;;;5026780;28;20253;-60
2022/10/10 13:20:56;;;;;;;11.73;6.80;;;19.30;99.90;;;;;;5030925;28;20216;-60
2022/10/10 13:24:03;;;;;;;12.10;7.67;;;19.30;99.90;;;;;;5042087;28;20711;-60
2022/10/10 13:27:17;;;;;;;16.17;6.60;;;19.40;99.90;;;;;;5031151;28;20250;-60
2022/10/10 13:30:24;;;;;;;12.77;7.43;;;19.30;99.90;;;;;;5027261;28;20409;-60
2022/10/10 13:33:36;;;;;;;11.03;7.40;;;19.30;99.90;;;;;;5025297;28;20236;-60
2022/10/10 13:36:43;;;;;;;9.73;6.90;;;19.20;99.90;;;;;;5029786;28;20216;-60
2022/10/10 13:39:51;;;;;;;14.93;7.60;;;19.10;99.90;;;;;;5026108;28;20600;-60
2022/10/10 13:42:57;;;;;;;13.50;7.80;;;18.90;99.90;;;;;;5029450;28;20250;-60
2022/10/10 13:46:04;;;;;;;12.93;7.20;;;18.70;99.90;;;;;;5033668;28;20232;-60
2022/10/10 13:49:24;;;;;;;12.03;7.70;;;18.60;99.90;;;;;;5025220;28;20228;-60
2022/10/10 13:52:31;;;;;;;12.73;7.33;;;18.60;99.90;;;;;;5034419;28;20546;-60
2022/10/10 13:55:38;;;;;;;16.43;8.17;;;18.60;99.90;;;;;;5038858;28;20248;-60
2022/10/10 13:58:48;;;;;;;15.67;9.17;;;18.60;99.90;;;;;;5027904;28;20197;-60
2022/10/10 14:01:59;;;;;;;15.30;9.00;;;18.60;99.90;;;;;;5030038;28;20248;-60
2022/10/10 14:05:08;;;;;;;14.47;8.43;;;18.50;99.90;;;;;;5036319;28;20240;-60
2022/10/10 14:08:17;;;;;;;16.53;7.03;;;18.30;99.90;;;;;;5042357;28;20241;-60
2022/10/10 14:11:30;;;;;;;9.97;6.00;;;18.00;99.90;;;;;;5034577;28;20680;-60
2022/10/10 14:14:43;;;;;;;7.73;4.87;;;17.80;99.90;;;;;;5031561;28;20201;-60